Time;durP1;ratioP1;P1;durP2;ratioP2;P2;SDS_P1;SDS_P2;PMS_P1;PMS_P2;Temp;Humidity;BMP_temperature;BMP_pressure;BME280_temperature;BME280_humidity;BME280_pressure;Samples;Min_cycle;Max_cycle;Signal;HPM_P1;HPM_P2
2021/04/17 00:00:42;;;;;;;8.38;1.80;;;;;;;;;;5069059;28;20500;-62
2021/04/17 00:03:07;;;;;;;2.30;1.52;;;;;;;;;;5070244;28;20042;-61
2021/04/17 00:05:32;;;;;;;3.28;2.05;;;;;;;;;;5068755;28;20020;-60
2021/04/17 00:07:57;;;;;;;6.18;1.67;;;;;;;;;;5070019;28;20037;-61
2021/04/17 00:10:23;;;;;;;4.15;1.63;;;;;;;;;;5069322;28;20026;-62
2021/04/17 00:12:48;;;;;;;4.93;3.05;;;;;;;;;;5069376;28;20070;-61
2021/04/17 00:15:14;;;;;;;4.20;2.33;;;;;;;;;;5070907;28;20020;-61
2021/04/17 00:17:39;;;;;;;2.92;1.80;;;;;;;;;;5069231;28;20064;-61
2021/04/17 00:20:04;;;;;;;4.22;2.08;;;;;;;;;;5070192;28;20024;-61
2021/04/17 00:22:30;;;;;;;2.35;1.58;;;;;;;;;;5068530;28;20555;-61
2021/04/17 00:24:55;;;;;;;9.45;2.42;;;;;;;;;;5070122;28;20027;-61
2021/04/17 00:27:21;;;;;;;2.58;2.10;;;;;;;;;;5068941;28;20366;-61
2021/04/17 00:29:46;;;;;;;4.10;1.65;;;;;;;;;;5068475;28;20017;-61
2021/04/17 00:32:11;;;;;;;1.67;1.10;;;;;;;;;;5068426;28;20021;-62
2021/04/17 00:34:37;;;;;;;3.67;1.50;;;;;;;;;;5068199;28;20027;-62
2021/04/17 00:37:02;;;;;;;4.97;2.58;;;;;;;;;;5069589;28;20447;-61
2021/04/17 00:39:28;;;;;;;2.97;2.08;;;;;;;;;;5068333;28;20028;-61
2021/04/17 00:41:53;;;;;;;6.28;2.50;;;;;;;;;;5068969;28;20039;-61
2021/04/17 00:44:19;;;;;;;3.15;1.73;;;;;;;;;;5068481;28;20029;-61
2021/04/17 00:46:44;;;;;;;4.13;2.13;;;;;;;;;;5068485;28;20055;-61
2021/04/17 00:49:11;;;;;;;3.42;1.92;;;;;;;;;;5064295;28;20026;-62
2021/04/17 00:51:37;;;;;;;2.60;1.30;;;;;;;;;;5067033;28;20023;-61
2021/04/17 00:54:03;;;;;;;5.53;2.03;;;;;;;;;;5069662;28;20028;-61
2021/04/17 00:56:28;;;;;;;2.28;1.45;;;;;;;;;;5068082;28;20038;-61
2021/04/17 00:58:53;;;;;;;9.60;1.52;;;;;;;;;;5068160;28;20028;-59
2021/04/17 01:01:19;;;;;;;2.28;1.20;;;;;;;;;;5069438;28;20021;-59
2021/04/17 01:04:02;;;;;;;3.08;1.73;;;;;;;;;;5068028;28;20040;-60
2021/04/17 01:06:46;;;;;;;3.45;2.00;;;;;;;;;;5066797;28;20051;-59
2021/04/17 01:09:30;;;;;;;10.15;1.65;;;;;;;;;;5066964;28;20012;-59
2021/04/17 01:12:06;;;;;;;3.15;1.92;;;;;;;;;;5069158;28;20029;-59
2021/04/17 01:14:32;;;;;;;17.92;2.13;;;;;;;;;;5068740;28;20098;-60
2021/04/17 01:16:58;;;;;;;2.28;1.42;;;;;;;;;;5069962;28;20029;-59
2021/04/17 01:19:52;;;;;;;2.63;1.63;;;;;;;;;;5068719;28;20383;-59
2021/04/17 01:22:20;;;;;;;2.33;1.25;;;;;;;;;;5007560;28;20670;-59
2021/04/17 01:24:48;;;;;;;2.30;1.20;;;;;;;;;;5065647;28;20553;-59
2021/04/17 01:27:13;;;;;;;1.73;1.00;;;;;;;;;;5069881;28;20035;-59
2021/04/17 01:29:41;;;;;;;3.17;2.03;;;;;;;;;;5071851;28;20027;-59
2021/04/17 01:32:12;;;;;;;2.60;1.60;;;;;;;;;;5073337;28;20039;-60
2021/04/17 01:34:39;;;;;;;2.53;1.23;;;;;;;;;;5070738;28;20024;-60
2021/04/17 01:37:04;;;;;;;1.65;1.05;;;;;;;;;;5073275;28;20044;-59
2021/04/17 01:39:30;;;;;;;3.83;1.42;;;;;;;;;;5071909;28;20082;-59
2021/04/17 01:41:57;;;;;;;1.50;1.00;;;;;;;;;;5072850;28;20031;-59
2021/04/17 01:44:27;;;;;;;2.08;1.45;;;;;;;;;;5072199;28;20111;-60
2021/04/17 01:46:56;;;;;;;3.33;2.28;;;;;;;;;;5072658;28;20046;-60
2021/04/17 01:49:22;;;;;;;5.10;3.17;;;;;;;;;;5071831;28;20025;-60
2021/04/17 01:51:49;;;;;;;3.45;1.63;;;;;;;;;;5071672;28;20614;-59
2021/04/17 01:54:17;;;;;;;5.38;1.63;;;;;;;;;;5072778;28;20036;-59
2021/04/17 01:56:44;;;;;;;3.65;2.00;;;;;;;;;;5071687;28;20437;-59
2021/04/17 01:59:10;;;;;;;2.22;1.27;;;;;;;;;;5071536;28;20060;-59
2021/04/17 02:01:36;;;;;;;5.10;2.03;;;;;;;;;;5071499;28;20048;-59
2021/04/17 02:04:01;;;;;;;2.42;1.83;;;;;;;;;;5072670;28;20141;-59
2021/04/17 02:06:27;;;;;;;5.15;1.80;;;;;;;;;;5070916;28;20109;-59
2021/04/17 02:08:52;;;;;;;2.58;1.40;;;;;;;;;;5070755;28;20082;-60
2021/04/17 02:11:17;;;;;;;6.70;1.02;;;;;;;;;;5072486;28;20025;-59
2021/04/17 02:13:43;;;;;;;2.92;1.75;;;;;;;;;;5070923;28;20040;-61
2021/04/17 02:16:17;;;;;;;2.72;1.45;;;;;;;;;;5070815;28;20667;-60
2021/04/17 02:19:09;;;;;;;1.33;0.73;;;;;;;;;;5070869;28;20061;-60
2021/04/17 02:21:36;;;;;;;7.70;1.73;;;;;;;;;;5067155;28;20044;-61
2021/04/17 02:24:02;;;;;;;2.55;1.38;;;;;;;;;;5072461;28;20020;-60
2021/04/17 02:26:28;;;;;;;2.03;1.30;;;;;;;;;;5070909;28;20039;-61
2021/04/17 02:28:53;;;;;;;2.10;1.08;;;;;;;;;;5071671;28;20025;-61
2021/04/17 02:31:18;;;;;;;7.55;1.95;;;;;;;;;;5071132;28;20030;-60
2021/04/17 02:33:44;;;;;;;1.77;1.25;;;;;;;;;;5069942;28;20020;-61
2021/04/17 02:36:09;;;;;;;3.33;1.20;;;;;;;;;;5071821;28;20086;-61
2021/04/17 02:38:34;;;;;;;2.78;1.50;;;;;;;;;;5068985;28;20020;-60
2021/04/17 02:41:00;;;;;;;4.13;1.58;;;;;;;;;;5072478;28;20025;-61
2021/04/17 02:43:26;;;;;;;1.55;0.95;;;;;;;;;;5071165;28;20017;-60
2021/04/17 02:45:51;;;;;;;1.80;1.10;;;;;;;;;;5070294;28;20560;-61
2021/04/17 02:48:16;;;;;;;2.80;1.73;;;;;;;;;;5071056;28;20125;-61
2021/04/17 02:50:42;;;;;;;2.42;1.08;;;;;;;;;;5072205;28;20097;-61
2021/04/17 02:53:08;;;;;;;1.92;1.17;;;;;;;;;;5071825;28;20094;-61
2021/04/17 02:55:33;;;;;;;5.50;2.00;;;;;;;;;;5070494;28;20039;-61
2021/04/17 02:58:01;;;;;;;6.28;2.35;;;;;;;;;;5071951;28;20032;-60
2021/04/17 03:00:26;;;;;;;6.43;2.08;;;;;;;;;;5068616;28;20032;-61
2021/04/17 03:02:52;;;;;;;3.08;1.90;;;;;;;;;;5070224;28;20094;-61
2021/04/17 03:05:18;;;;;;;1.30;0.82;;;;;;;;;;5070710;28;20082;-61
2021/04/17 03:07:43;;;;;;;4.03;1.85;;;;;;;;;;5068426;28;20032;-60
2021/04/17 03:10:09;;;;;;;6.47;2.78;;;;;;;;;;5071539;28;20020;-61
2021/04/17 03:12:34;;;;;;;3.05;1.42;;;;;;;;;;5070387;28;20048;-60
2021/04/17 03:15:00;;;;;;;1.75;1.20;;;;;;;;;;5071352;28;20631;-61
2021/04/17 03:17:25;;;;;;;3.00;1.75;;;;;;;;;;5069340;28;20048;-60
2021/04/17 03:19:51;;;;;;;1.67;0.77;;;;;;;;;;5071278;28;20051;-61
2021/04/17 03:22:16;;;;;;;2.38;1.25;;;;;;;;;;5072458;28;20026;-61
2021/04/17 03:24:41;;;;;;;3.90;3.03;;;;;;;;;;5071241;28;20410;-60
2021/04/17 03:27:07;;;;;;;1.85;1.08;;;;;;;;;;5071777;28;20053;-61
2021/04/17 03:29:32;;;;;;;3.83;1.42;;;;;;;;;;5070318;28;20100;-60
2021/04/17 03:31:57;;;;;;;0.60;0.40;;;;;;;;;;5073398;28;20052;-61
2021/04/17 03:34:26;;;;;;;2.95;1.48;;;;;;;;;;5066343;28;20025;-61
2021/04/17 03:36:51;;;;;;;2.78;1.45;;;;;;;;;;5072119;28;20032;-61
2021/04/17 03:39:16;;;;;;;1.48;0.82;;;;;;;;;;5072585;28;20490;-61
2021/04/17 03:41:42;;;;;;;1.08;0.65;;;;;;;;;;5072430;28;20082;-61
2021/04/17 03:44:07;;;;;;;3.15;1.67;;;;;;;;;;5073238;28;20027;-61
2021/04/17 03:46:32;;;;;;;6.25;1.80;;;;;;;;;;5071345;28;20012;-61
2021/04/17 03:48:58;;;;;;;1.65;0.70;;;;;;;;;;5072346;28;20344;-61
2021/04/17 03:51:24;;;;;;;1.70;0.63;;;;;;;;;;5072088;28;20413;-60
2021/04/17 03:53:49;;;;;;;1.33;0.65;;;;;;;;;;5071554;28;20033;-61
2021/04/17 03:56:14;;;;;;;1.88;1.08;;;;;;;;;;5073103;28;20106;-61
2021/04/17 03:58:40;;;;;;;3.53;0.82;;;;;;;;;;5071311;28;20021;-61
2021/04/17 04:01:05;;;;;;;1.75;0.75;;;;;;;;;;5073433;28;20028;-61
2021/04/17 04:03:31;;;;;;;0.57;0.40;;;;;;;;;;5070127;28;20028;-60
2021/04/17 04:05:56;;;;;;;1.23;0.85;;;;;;;;;;5072509;28;20029;-61
2021/04/17 04:08:21;;;;;;;0.80;0.57;;;;;;;;;;5071486;28;20054;-61
2021/04/17 04:10:47;;;;;;;0.80;0.32;;;;;;;;;;5070848;28;20044;-61
2021/04/17 04:13:12;;;;;;;1.13;0.40;;;;;;;;;;5073048;28;20031;-61
2021/04/17 04:15:37;;;;;;;3.20;1.27;;;;;;;;;;5071810;28;20443;-60
2021/04/17 04:18:03;;;;;;;2.08;0.65;;;;;;;;;;5072449;28;20761;-61
2021/04/17 04:20:28;;;;;;;0.50;0.30;;;;;;;;;;5071392;28;20040;-60
2021/04/17 04:22:53;;;;;;;4.80;2.65;;;;;;;;;;5072320;28;20028;-61
2021/04/17 04:25:19;;;;;;;10.65;2.25;;;;;;;;;;5071968;28;20086;-60
2021/04/17 04:27:44;;;;;;;4.00;0.93;;;;;;;;;;5071244;28;20104;-61
2021/04/17 04:30:10;;;;;;;1.77;0.95;;;;;;;;;;5069276;28;20101;-61
2021/04/17 04:32:36;;;;;;;4.43;0.88;;;;;;;;;;5069031;28;20103;-62
2021/04/17 04:35:01;;;;;;;1.90;1.02;;;;;;;;;;5072749;28;20032;-61
2021/04/17 04:37:27;;;;;;;1.33;0.75;;;;;;;;;;5071175;28;20029;-61
2021/04/17 04:39:52;;;;;;;3.00;1.63;;;;;;;;;;5071695;28;20734;-61
2021/04/17 04:42:17;;;;;;;0.85;0.45;;;;;;;;;;5072078;28;20028;-61
2021/04/17 04:44:43;;;;;;;15.10;1.98;;;;;;;;;;5071332;28;20508;-61
2021/04/17 04:47:09;;;;;;;0.73;0.57;;;;;;;;;;5072406;28;20462;-61
2021/04/17 04:49:34;;;;;;;2.20;0.90;;;;;;;;;;5071054;28;20060;-61
2021/04/17 04:51:59;;;;;;;1.23;0.65;;;;;;;;;;5071094;28;20067;-61
2021/04/17 04:54:25;;;;;;;0.90;0.60;;;;;;;;;;5070895;28;20025;-61
2021/04/17 04:56:50;;;;;;;1.38;1.02;;;;;;;;;;5070592;28;20037;-60
2021/04/17 04:59:16;;;;;;;2.67;2.05;;;;;;;;;;5071874;28;20458;-61
2021/04/17 05:01:41;;;;;;;6.18;2.28;;;;;;;;;;5073279;28;20036;-61
2021/04/17 05:04:06;;;;;;;1.85;0.90;;;;;;;;;;5075208;28;20212;-61
2021/04/17 05:06:32;;;;;;;11.75;2.90;;;;;;;;;;5075015;28;20028;-61
2021/04/17 05:08:57;;;;;;;3.40;1.75;;;;;;;;;;5075944;28;20375;-61
2021/04/17 05:11:22;;;;;;;9.25;2.05;;;;;;;;;;5074726;28;20028;-60
2021/04/17 05:13:47;;;;;;;6.75;1.45;;;;;;;;;;5074364;28;20024;-60
2021/04/17 05:16:13;;;;;;;6.60;1.73;;;;;;;;;;5076248;28;20103;-61
2021/04/17 05:18:39;;;;;;;3.33;1.75;;;;;;;;;;5074146;28;20048;-61
2021/04/17 05:21:04;;;;;;;2.10;1.20;;;;;;;;;;5076104;28;20032;-61
2021/04/17 05:23:29;;;;;;;2.55;1.08;;;;;;;;;;5074846;28;20016;-61
2021/04/17 05:25:55;;;;;;;3.30;1.25;;;;;;;;;;5074068;28;20411;-61
2021/04/17 05:28:20;;;;;;;3.92;2.35;;;;;;;;;;5072796;28;20729;-61
2021/04/17 05:30:45;;;;;;;3.85;2.13;;;;;;;;;;5074312;28;20073;-61
2021/04/17 05:33:10;;;;;;;8.68;3.33;;;;;;;;;;5075215;28;20450;-61
2021/04/17 05:35:36;;;;;;;5.38;1.85;;;;;;;;;;5074709;28;20039;-61
2021/04/17 05:38:01;;;;;;;2.15;1.30;;;;;;;;;;5074470;28;20453;-61
2021/04/17 05:40:26;;;;;;;2.90;1.30;;;;;;;;;;5074629;28;20047;-61
2021/04/17 05:42:52;;;;;;;2.90;2.00;;;;;;;;;;5074524;28;20032;-61
2021/04/17 05:45:17;;;;;;;0.77;0.50;;;;;;;;;;5075060;28;20082;-61
2021/04/17 05:47:43;;;;;;;2.75;1.33;;;;;;;;;;5074194;28;20031;-61
2021/04/17 05:50:08;;;;;;;1.92;1.38;;;;;;;;;;5075476;28;20024;-61
2021/04/17 05:52:33;;;;;;;1.60;1.17;;;;;;;;;;5073880;28;20024;-61
2021/04/17 05:54:59;;;;;;;12.07;0.85;;;;;;;;;;5075222;28;20033;-61
2021/04/17 05:57:24;;;;;;;2.35;1.42;;;;;;;;;;5074369;28;20024;-60
2021/04/17 05:59:49;;;;;;;1.70;1.27;;;;;;;;;;5074567;28;20032;-61
2021/04/17 06:02:15;;;;;;;1.23;0.77;;;;;;;;;;5074780;28;20107;-60
2021/04/17 06:04:40;;;;;;;3.08;1.33;;;;;;;;;;5073694;28;20031;-60
2021/04/17 06:07:05;;;;;;;1.60;0.82;;;;;;;;;;5075007;28;20099;-60
2021/04/17 06:09:31;;;;;;;8.98;1.83;;;;;;;;;;5073858;28;20485;-63
2021/04/17 06:11:56;;;;;;;1.17;1.05;;;;;;;;;;5074470;28;20537;-60
2021/04/17 06:14:21;;;;;;;5.55;1.33;;;;;;;;;;5073919;28;20017;-61
2021/04/17 06:16:47;;;;;;;1.40;1.05;;;;;;;;;;5073760;28;20025;-61
2021/04/17 06:19:12;;;;;;;5.03;1.58;;;;;;;;;;5075213;28;20038;-60
2021/04/17 06:21:37;;;;;;;1.38;0.80;;;;;;;;;;5073588;28;20032;-60
2021/04/17 06:24:03;;;;;;;0.50;0.40;;;;;;;;;;5073462;28;20463;-60
2021/04/17 06:26:29;;;;;;;3.05;1.10;;;;;;;;;;5071463;28;20051;-61
2021/04/17 06:28:54;;;;;;;1.83;0.85;;;;;;;;;;5073689;28;20047;-61
2021/04/17 06:31:19;;;;;;;8.85;1.35;;;;;;;;;;5072468;28;20081;-60
2021/04/17 06:33:45;;;;;;;3.38;1.15;;;;;;;;;;5070951;28;20023;-60
2021/04/17 06:36:10;;;;;;;3.38;1.92;;;;;;;;;;5070102;28;20027;-60
2021/04/17 06:38:35;;;;;;;1.95;1.25;;;;;;;;;;5072768;28;20028;-60
2021/04/17 06:41:02;;;;;;;3.88;1.88;;;;;;;;;;5074289;28;20033;-61
2021/04/17 06:43:29;;;;;;;1.92;1.25;;;;;;;;;;5073175;28;20108;-60
2021/04/17 06:45:55;;;;;;;1.33;0.98;;;;;;;;;;5073692;28;20021;-60
2021/04/17 06:48:23;;;;;;;2.55;1.75;;;;;;;;;;5065804;28;20467;-61
2021/04/17 06:50:48;;;;;;;2.63;2.20;;;;;;;;;;5071893;28;20035;-61
2021/04/17 06:53:16;;;;;;;2.72;1.40;;;;;;;;;;5073845;28;20095;-60
2021/04/17 06:55:41;;;;;;;3.75;0.70;;;;;;;;;;5073040;28;20642;-60
2021/04/17 06:58:06;;;;;;;3.45;1.75;;;;;;;;;;5073588;28;20026;-60
2021/04/17 07:00:32;;;;;;;1.92;1.17;;;;;;;;;;5072392;28;20048;-60
2021/04/17 07:02:57;;;;;;;1.88;0.70;;;;;;;;;;5073962;28;20024;-61
2021/04/17 07:05:22;;;;;;;3.03;1.05;;;;;;;;;;5072465;28;20120;-61
2021/04/17 07:07:48;;;;;;;2.13;1.05;;;;;;;;;;5072555;28;20017;-60
2021/04/17 07:10:14;;;;;;;3.10;1.65;;;;;;;;;;5073972;28;20031;-61
2021/04/17 07:12:41;;;;;;;3.25;1.63;;;;;;;;;;5072168;28;20031;-60
2021/04/17 07:15:08;;;;;;;3.05;0.52;;;;;;;;;;5073837;28;20040;-61
2021/04/17 07:17:34;;;;;;;1.35;0.93;;;;;;;;;;5071909;28;20566;-59
2021/04/17 07:20:01;;;;;;;0.80;0.65;;;;;;;;;;5068367;28;20079;-60
2021/04/17 07:22:28;;;;;;;2.75;1.20;;;;;;;;;;5071648;28;20028;-60
2021/04/17 07:25:13;;;;;;;5.32;1.00;;;;;;;;;;5072120;28;20032;-60
2021/04/17 07:27:39;;;;;;;3.47;1.77;;;;;;;;;;5071705;28;20040;-60
2021/04/17 07:30:14;;;;;;;2.67;1.85;;;;;;;;;;5073515;28;20192;-60
2021/04/17 07:32:39;;;;;;;16.13;5.57;;;;;;;;;;5070195;28;20610;-61
2021/04/17 07:35:12;;;;;;;1.83;1.13;;;;;;;;;;5072329;28;20037;-61
2021/04/17 07:37:38;;;;;;;4.45;1.70;;;;;;;;;;5072016;28;20048;-61
2021/04/17 07:40:16;;;;;;;3.60;2.58;;;;;;;;;;5073430;28;20043;-60
2021/04/17 07:42:42;;;;;;;3.42;1.50;;;;;;;;;;5071915;28;20024;-60
2021/04/17 07:45:26;;;;;;;1.88;1.33;;;;;;;;;;5073443;28;20032;-60
2021/04/17 07:47:53;;;;;;;3.08;1.95;;;;;;;;;;5072131;28;20493;-61
2021/04/17 07:50:19;;;;;;;2.20;1.70;;;;;;;;;;5072725;28;20035;-61
2021/04/17 07:52:44;;;;;;;6.70;3.22;;;;;;;;;;5070927;28;20721;-61
2021/04/17 07:55:11;;;;;;;5.55;3.38;;;;;;;;;;5072797;28;20032;-60
2021/04/17 07:57:43;;;;;;;4.60;2.33;;;;;;;;;;5071142;28;20158;-61
2021/04/17 08:00:10;;;;;;;10.68;5.70;;;;;;;;;;5074804;28;20097;-60
2021/04/17 08:02:36;;;;;;;17.10;4.95;;;;;;;;;;5071451;28;20103;-61
2021/04/17 08:05:02;;;;;;;3.15;2.42;;;;;;;;;;5073369;28;20111;-60
2021/04/17 08:07:28;;;;;;;4.78;2.60;;;;;;;;;;5069281;28;20024;-60
2021/04/17 08:09:55;;;;;;;3.42;1.88;;;;;;;;;;5072443;28;20028;-60
2021/04/17 08:12:21;;;;;;;4.63;3.05;;;;;;;;;;5072278;28;20478;-60
2021/04/17 08:14:46;;;;;;;7.28;5.57;;;;;;;;;;5070220;28;20020;-61
2021/04/17 08:17:12;;;;;;;8.07;5.85;;;;;;;;;;5073248;28;20048;-60
2021/04/17 08:19:38;;;;;;;7.97;6.03;;;;;;;;;;5082121;28;20024;-60
2021/04/17 08:22:03;;;;;;;13.07;9.32;;;;;;;;;;5073604;28;20028;-60
2021/04/17 08:24:30;;;;;;;8.70;6.13;;;;;;;;;;5070181;28;20035;-60
2021/04/17 08:26:56;;;;;;;10.75;7.28;;;;;;;;;;5073198;28;20032;-60
2021/04/17 08:29:40;;;;;;;5.43;3.38;;;;;;;;;;5071578;28;20772;-60
2021/04/17 08:32:05;;;;;;;12.32;6.82;;;;;;;;;;5072476;28;20032;-60
2021/04/17 08:34:31;;;;;;;31.13;22.70;;;;;;;;;;5069208;28;20019;-62
2021/04/17 08:37:04;;;;;;;24.30;15.98;;;;;;;;;;5076879;28;20025;-60
2021/04/17 08:39:39;;;;;;;21.65;15.05;;;;;;;;;;5075483;28;20154;-60
2021/04/17 08:42:06;;;;;;;7.57;5.50;;;;;;;;;;5074642;28;20109;-60
2021/04/17 08:44:33;;;;;;;5.88;4.95;;;;;;;;;;5075317;28;20021;-60
2021/04/17 08:46:59;;;;;;;6.28;3.00;;;;;;;;;;5079948;28;20020;-61
2021/04/17 08:49:29;;;;;;;6.57;3.95;;;;;;;;;;5078025;28;20378;-60
2021/04/17 08:52:09;;;;;;;10.93;2.90;;;;;;;;;;5072019;28;20032;-59
2021/04/17 08:54:35;;;;;;;9.50;2.47;;;;;;;;;;5072928;28;20056;-59
2021/04/17 08:57:02;;;;;;;3.05;2.47;;;;;;;;;;5070705;28;20048;-59
2021/04/17 08:59:32;;;;;;;11.32;4.57;;;;;;;;;;5074443;28;20099;-59
2021/04/17 09:01:59;;;;;;;11.68;7.30;;;;;;;;;;5084109;28;20040;-60
2021/04/17 09:04:26;;;;;;;6.45;4.95;;;;;;;;;;5083853;28;20046;-59
2021/04/17 09:06:56;;;;;;;13.05;4.75;;;;;;;;;;5086772;28;20032;-59
2021/04/17 09:09:21;;;;;;;10.93;4.47;;;;;;;;;;5086102;28;20059;-59
2021/04/17 09:12:13;;;;;;;9.98;4.70;;;;;;;;;;5079679;28;20056;-59
2021/04/17 09:14:41;;;;;;;3.15;2.45;;;;;;;;;;5076896;28;20028;-60
2021/04/17 09:17:07;;;;;;;9.10;7.75;;;;;;;;;;5078059;28;20487;-60
2021/04/17 09:19:38;;;;;;;8.68;3.28;;;;;;;;;;5084476;28;20032;-60
2021/04/17 09:22:23;;;;;;;4.40;2.47;;;;;;;;;;5087714;28;20051;-59
2021/04/17 09:24:49;;;;;;;8.20;6.47;;;;;;;;;;5083285;28;20189;-59
2021/04/17 09:27:23;;;;;;;5.97;3.90;;;;;;;;;;5085159;28;20111;-59
2021/04/17 09:29:55;;;;;;;6.88;4.88;;;;;;;;;;5086656;28;20075;-58
2021/04/17 09:32:20;;;;;;;2.75;1.92;;;;;;;;;;5088107;28;20028;-59
2021/04/17 09:34:46;;;;;;;3.97;2.15;;;;;;;;;;5086239;28;20031;-59
2021/04/17 09:37:11;;;;;;;6.95;2.75;;;;;;;;;;5073538;28;20040;-59
2021/04/17 09:39:43;;;;;;;4.50;3.47;;;;;;;;;;5087472;28;20016;-59
2021/04/17 09:42:10;;;;;;;9.18;5.30;;;;;;;;;;5083551;28;20061;-59
2021/04/17 09:44:42;;;;;;;10.07;6.70;;;;;;;;;;5087461;28;20020;-59
2021/04/17 09:47:08;;;;;;;14.43;11.38;;;;;;;;;;5085233;28;20036;-60
2021/04/17 09:49:38;;;;;;;13.32;7.80;;;;;;;;;;5087428;28;20020;-59
2021/04/17 09:52:04;;;;;;;10.63;5.55;;;;;;;;;;5079270;28;20017;-59
2021/04/17 09:54:29;;;;;;;11.60;5.05;;;;;;;;;;5077803;28;20469;-60
2021/04/17 09:56:55;;;;;;;8.23;7.35;;;;;;;;;;5086192;28;20502;-61
2021/04/17 09:59:20;;;;;;;12.98;4.32;;;;;;;;;;5088285;28;20032;-60
2021/04/17 10:01:52;;;;;;;3.53;3.17;;;;;;;;;;5086510;28;20055;-61
2021/04/17 10:04:17;;;;;;;4.68;3.97;;;;;;;;;;5076285;28;20082;-62
2021/04/17 10:06:43;;;;;;;4.38;2.53;;;;;;;;;;5080095;28;20032;-62
2021/04/17 10:09:11;;;;;;;4.95;2.30;;;;;;;;;;5078433;28;20032;-62
2021/04/17 10:11:40;;;;;;;21.83;8.57;;;;;;;;;;5077894;28;20024;-62
2021/04/17 10:14:06;;;;;;;7.63;5.22;;;;;;;;;;5078104;28;20383;-61
2021/04/17 10:16:36;;;;;;;5.80;4.10;;;;;;;;;;5087458;28;20047;-62
2021/04/17 10:19:03;;;;;;;8.25;5.20;;;;;;;;;;5086177;28;20196;-59
2021/04/17 10:21:31;;;;;;;5.47;3.25;;;;;;;;;;5088014;28;20031;-60
2021/04/17 10:24:15;;;;;;;2.45;1.90;;;;;;;;;;5085609;28;20345;-61
2021/04/17 10:26:59;;;;;;;2.58;1.42;;;;;;;;;;5086638;28;20499;-62
2021/04/17 10:29:48;;;;;;;6.82;6.15;;;;;;;;;;5077490;28;20497;-59
2021/04/17 10:32:13;;;;;;;6.97;5.93;;;;;;;;;;5065235;28;20131;-59
2021/04/17 10:34:39;;;;;;;5.25;3.53;;;;;;;;;;5079524;28;20705;-59
2021/04/17 10:37:06;;;;;;;7.20;4.28;;;;;;;;;;5085018;28;20028;-59
2021/04/17 10:39:31;;;;;;;3.47;3.00;;;;;;;;;;5082356;28;20093;-59
2021/04/17 10:42:01;;;;;;;5.15;3.42;;;;;;;;;;5077143;28;20028;-59
2021/04/17 10:44:26;;;;;;;3.45;2.13;;;;;;;;;;5067136;28;20048;-58
2021/04/17 10:46:52;;;;;;;4.07;2.03;;;;;;;;;;5070581;28;20642;-59
2021/04/17 10:49:29;;;;;;;3.53;2.40;;;;;;;;;;5068309;28;20021;-59
2021/04/17 10:51:54;;;;;;;15.40;11.82;;;;;;;;;;5069904;28;20047;-59
2021/04/17 10:54:19;;;;;;;10.10;5.28;;;;;;;;;;5068529;28;20024;-59
2021/04/17 10:56:56;;;;;;;5.47;4.10;;;;;;;;;;5069674;28;20036;-58
2021/04/17 10:59:21;;;;;;;8.07;4.53;;;;;;;;;;5067384;28;20356;-59
2021/04/17 11:01:46;;;;;;;2.92;2.45;;;;;;;;;;5073447;28;20082;-59
2021/04/17 11:04:12;;;;;;;3.78;2.55;;;;;;;;;;5073949;28;20024;-60
2021/04/17 11:06:39;;;;;;;4.70;3.00;;;;;;;;;;5070295;28;20032;-60
2021/04/17 11:09:07;;;;;;;5.32;2.25;;;;;;;;;;5076830;28;20016;-59
2021/04/17 11:11:32;;;;;;;11.73;2.67;;;;;;;;;;5072062;28;20082;-65
2021/04/17 11:13:59;;;;;;;10.93;6.50;;;;;;;;;;5069595;28;20026;-65
2021/04/17 11:16:49;;;;;;;31.77;15.43;;;;;;;;;;5070188;28;20028;-65
2021/04/17 11:19:22;;;;;;;18.83;9.13;;;;;;;;;;5071075;28;20548;-66
2021/04/17 11:22:04;;;;;;;7.28;4.15;;;;;;;;;;5074420;28;20264;-65
2021/04/17 11:24:29;;;;;;;7.40;2.75;;;;;;;;;;5069480;28;20032;-65
2021/04/17 11:26:55;;;;;;;8.02;4.80;;;;;;;;;;5069338;28;20093;-65
2021/04/17 11:29:20;;;;;;;4.70;2.78;;;;;;;;;;5068959;28;20043;-65
2021/04/17 11:31:46;;;;;;;7.32;2.95;;;;;;;;;;5072014;28;20017;-66
2021/04/17 11:34:11;;;;;;;9.65;4.38;;;;;;;;;;5075853;28;20027;-66
2021/04/17 11:36:37;;;;;;;14.00;9.02;;;;;;;;;;5074206;28;20639;-66
2021/04/17 11:39:03;;;;;;;14.13;10.48;;;;;;;;;;5069355;28;20028;-59
2021/04/17 11:41:28;;;;;;;35.30;20.58;;;;;;;;;;5077673;28;20025;-60
2021/04/17 11:43:53;;;;;;;47.67;28.83;;;;;;;;;;5071971;28;20035;-60
2021/04/17 11:46:19;;;;;;;24.77;19.08;;;;;;;;;;5075250;28;20118;-59
2021/04/17 11:48:49;;;;;;;54.30;29.27;;;;;;;;;;5070671;28;20032;-59
2021/04/17 11:51:14;;;;;;;63.28;38.65;;;;;;;;;;5070356;28;20151;-60
2021/04/17 11:53:40;;;;;;;33.75;18.52;;;;;;;;;;5071078;28;20052;-59
2021/04/17 11:56:05;;;;;;;19.50;10.43;;;;;;;;;;5073962;28;20032;-66
2021/04/17 11:58:31;;;;;;;27.85;10.88;;;;;;;;;;5069749;28;20036;-66
2021/04/17 12:00:57;;;;;;;11.25;8.65;;;;;;;;;;5069827;28;20031;-66
2021/04/17 12:03:23;;;;;;;15.30;11.68;;;;;;;;;;5077077;28;20039;-66
2021/04/17 12:05:49;;;;;;;21.05;15.38;;;;;;;;;;5072300;28;20474;-66
2021/04/17 12:08:14;;;;;;;9.55;7.55;;;;;;;;;;5080069;28;20031;-66
2021/04/17 12:10:40;;;;;;;6.18;4.57;;;;;;;;;;5075130;28;20028;-61
2021/04/17 12:13:05;;;;;;;7.63;5.05;;;;;;;;;;5073882;28;20059;-61
2021/04/17 12:15:31;;;;;;;8.07;6.85;;;;;;;;;;5079380;28;20035;-61
2021/04/17 12:17:56;;;;;;;7.72;7.00;;;;;;;;;;5077144;28;20407;-66
2021/04/17 12:20:21;;;;;;;9.38;6.88;;;;;;;;;;5078871;28;20043;-67
2021/04/17 12:22:46;;;;;;;9.15;6.55;;;;;;;;;;5075152;28;20129;-66
2021/04/17 12:25:12;;;;;;;12.98;10.25;;;;;;;;;;5070353;28;20151;-67
2021/04/17 12:27:37;;;;;;;11.57;9.98;;;;;;;;;;5067583;28;20105;-66
2021/04/17 12:30:05;;;;;;;9.95;5.78;;;;;;;;;;5069933;28;20024;-66
2021/04/17 12:32:30;;;;;;;10.43;9.02;;;;;;;;;;5069426;28;20055;-66
2021/04/17 12:34:56;;;;;;;7.18;5.65;;;;;;;;;;5068638;28;20052;-66
2021/04/17 12:37:22;;;;;;;11.40;9.40;;;;;;;;;;5067309;28;20020;-66
2021/04/17 12:39:47;;;;;;;12.40;7.15;;;;;;;;;;5066994;28;20048;-67
2021/04/17 12:42:13;;;;;;;11.07;9.73;;;;;;;;;;5067298;28;20020;-67
2021/04/17 12:44:38;;;;;;;12.88;8.55;;;;;;;;;;5065633;28;20103;-67
2021/04/17 12:47:03;;;;;;;5.13;4.22;;;;;;;;;;5066366;28;20421;-67
2021/04/17 12:49:29;;;;;;;4.97;3.97;;;;;;;;;;5066430;28;20028;-67
2021/04/17 12:51:54;;;;;;;7.32;5.50;;;;;;;;;;5067389;28;20040;-67
2021/04/17 12:54:19;;;;;;;12.70;7.35;;;;;;;;;;5066380;28;20032;-66
2021/04/17 12:56:44;;;;;;;7.60;5.05;;;;;;;;;;5070236;28;20063;-61
2021/04/17 12:59:10;;;;;;;6.30;5.32;;;;;;;;;;5071260;28;20024;-61
2021/04/17 13:01:35;;;;;;;3.60;2.53;;;;;;;;;;5067992;28;20056;-61
2021/04/17 13:04:00;;;;;;;4.90;3.75;;;;;;;;;;5082069;28;20029;-61
2021/04/17 13:06:27;;;;;;;8.55;7.65;;;;;;;;;;5065854;28;20047;-61
2021/04/17 13:08:53;;;;;;;9.05;5.82;;;;;;;;;;5066872;28;20083;-61
2021/04/17 13:11:19;;;;;;;8.40;7.57;;;;;;;;;;5067696;28;20094;-61
2021/04/17 13:13:44;;;;;;;9.20;8.30;;;;;;;;;;5066907;28;20095;-61
2021/04/17 13:16:09;;;;;;;6.97;6.03;;;;;;;;;;5067764;28;20304;-61
2021/04/17 13:18:35;;;;;;;6.53;5.75;;;;;;;;;;5065595;28;20048;-61
2021/04/17 13:21:01;;;;;;;7.57;6.07;;;;;;;;;;5067956;28;20049;-61
2021/04/17 13:23:26;;;;;;;10.45;5.22;;;;;;;;;;5070282;28;20073;-61
2021/04/17 13:25:52;;;;;;;9.27;5.20;;;;;;;;;;5072068;28;20040;-61
2021/04/17 13:28:17;;;;;;;9.07;6.68;;;;;;;;;;5074195;28;20012;-61
2021/04/17 13:30:42;;;;;;;6.95;4.82;;;;;;;;;;5071877;28;20131;-61
2021/04/17 13:33:08;;;;;;;9.48;5.90;;;;;;;;;;5076783;28;20024;-61
2021/04/17 13:35:33;;;;;;;11.25;8.70;;;;;;;;;;5074685;28;20024;-65
2021/04/17 13:37:58;;;;;;;9.35;7.18;;;;;;;;;;5070125;28;20129;-66
2021/04/17 13:40:24;;;;;;;5.85;5.35;;;;;;;;;;5075127;28;20031;-66
2021/04/17 13:42:49;;;;;;;9.45;5.00;;;;;;;;;;5071561;28;20027;-66
2021/04/17 13:45:15;;;;;;;20.42;17.83;;;;;;;;;;5072216;28;20035;-66
2021/04/17 13:47:40;;;;;;;13.07;10.30;;;;;;;;;;5071484;28;20075;-65
2021/04/17 13:50:07;;;;;;;7.20;5.63;;;;;;;;;;5072516;28;20530;-65
2021/04/17 13:52:32;;;;;;;4.40;4.00;;;;;;;;;;5073506;28;20016;-65
2021/04/17 13:54:57;;;;;;;8.40;6.93;;;;;;;;;;5071675;28;20031;-66
2021/04/17 13:57:23;;;;;;;12.95;11.55;;;;;;;;;;5073322;28;20375;-66
2021/04/17 13:59:48;;;;;;;9.23;7.97;;;;;;;;;;5075839;28;20120;-66
2021/04/17 14:02:15;;;;;;;7.28;4.50;;;;;;;;;;5072272;28;20032;-66
2021/04/17 14:04:41;;;;;;;12.30;11.20;;;;;;;;;;5070367;28;20021;-66
2021/04/17 14:07:06;;;;;;;6.60;5.38;;;;;;;;;;5070932;28;20028;-67
2021/04/17 14:09:31;;;;;;;10.65;5.07;;;;;;;;;;5069295;28;20032;-66
2021/04/17 14:11:57;;;;;;;5.35;4.68;;;;;;;;;;5071622;28;20059;-66
2021/04/17 14:14:22;;;;;;;6.45;4.38;;;;;;;;;;5081944;28;20032;-66
2021/04/17 14:16:48;;;;;;;7.93;6.00;;;;;;;;;;5073758;28;20063;-66
2021/04/17 14:19:13;;;;;;;7.25;4.97;;;;;;;;;;5082381;28;20034;-66
2021/04/17 14:21:39;;;;;;;13.23;7.35;;;;;;;;;;5079927;28;20036;-66
2021/04/17 14:24:04;;;;;;;6.07;4.65;;;;;;;;;;5076585;28;20028;-66
2021/04/17 14:26:29;;;;;;;11.38;4.95;;;;;;;;;;5081188;28;20073;-66
2021/04/17 14:28:55;;;;;;;9.75;4.60;;;;;;;;;;5079408;28;20020;-66
2021/04/17 14:31:21;;;;;;;6.88;4.10;;;;;;;;;;5082740;28;20031;-66
2021/04/17 14:33:46;;;;;;;13.15;3.97;;;;;;;;;;5077391;28;20031;-66
2021/04/17 14:36:11;;;;;;;3.72;2.90;;;;;;;;;;5072958;28;20097;-66
2021/04/17 14:38:37;;;;;;;5.50;3.60;;;;;;;;;;5074778;28;20037;-66